Time;durP1;ratioP1;P1;durP2;ratioP2;P2;SDS_P1;SDS_P2;PMS_P1;PMS_P2;Temp;Humidity;BMP_temperature;BMP_pressure;BME280_temperature;BME280_humidity;BME280_pressure;Samples;Min_cycle;Max_cycle;Signal;HPM_P1;HPM_P2
2022/06/02 00:00:13;;;;;;;3.50;2.00;;;;;;;;;;4883249;29;20299;-68
2022/06/02 00:03:13;;;;;;;5.05;2.15;;;;;;;;;;4914857;29;20180;-68
2022/06/02 00:05:58;;;;;;;4.78;2.42;;;;;;;;;;4914461;29;20543;-68
2022/06/02 00:08:30;;;;;;;;;;;;;;;;;;4914995;29;20060;-69
2022/06/02 00:11:03;;;;;;;5.10;2.58;;;;;;;;;;4914628;29;19930;-68
2022/06/02 00:13:58;;;;;;;5.53;3.20;;;;;;;;;;4914208;29;20059;-68
2022/06/02 00:16:39;;;;;;;9.35;5.18;;;;;;;;;;4914438;29;20409;-68
2022/06/02 00:19:25;;;;;;;9.73;4.60;;;;;;;;;;4919077;29;20604;-68
2022/06/02 00:22:07;;;;;;;10.23;4.10;;;;;;;;;;4905006;29;20070;-68
2022/06/02 00:25:03;;;;;;;8.80;4.10;;;;;;;;;;4967808;28;20058;-69
2022/06/02 00:27:36;;;;;;;9.57;4.30;;;;;;;;;;4939514;28;20055;-68
2022/06/02 00:30:15;;;;;;;12.32;5.68;;;;;;;;;;4971159;28;20065;-68
2022/06/02 00:33:15;;;;;;;10.38;4.82;;;;;;;;;;4951962;29;20047;-68
2022/06/02 00:35:45;;;;;;;9.45;4.82;;;;;;;;;;4971649;28;20061;-68
2022/06/02 00:38:29;;;;;;;10.07;4.75;;;;;;;;;;4939178;28;20062;-68
2022/06/02 00:41:20;;;;;;;9.85;4.10;;;;;;;;;;4939301;28;20058;-68
2022/06/02 00:44:12;;;;;;;7.38;3.53;;;;;;;;;;4971026;28;20058;-68
2022/06/02 00:47:06;;;;;;;7.25;2.75;;;;;;;;;;4954930;28;20047;-68
2022/06/02 00:49:50;;;;;;;6.03;2.88;;;;;;;;;;4951617;29;20051;-67
2022/06/02 00:52:30;;;;;;;6.05;3.28;;;;;;;;;;4919919;29;20389;-68
2022/06/02 00:58:19;;;;;;;6.88;3.40;;;;;;;;;;4951842;29;20063;-68
2022/06/02 01:01:09;;;;;;;;;;;;;;;;;;4952001;29;20055;-68
2022/06/02 01:03:43;;;;;;;7.82;3.85;;;;;;;;;;4954184;28;19922;-68
2022/06/02 01:06:43;;;;;;;7.30;3.63;;;;;;;;;;4974335;28;20088;-69
2022/06/02 01:09:47;;;;;;;8.48;4.22;;;;;;;;;;4957706;28;20671;-69
2022/06/02 01:12:27;;;;;;;8.18;4.40;;;;;;;;;;4990091;28;20054;-70
2022/06/02 01:15:38;;;;;;;7.75;4.13;;;;;;;;;;4957948;28;20050;-69
2022/06/02 01:18:16;;;;;;;6.75;3.00;;;;;;;;;;4980581;28;20060;-69
2022/06/02 01:21:11;;;;;;;11.98;4.53;;;;;;;;;;5017267;28;20064;-69
2022/06/02 01:24:16;;;;;;;8.30;4.53;;;;;;;;;;5032849;28;20057;-69
2022/06/02 01:27:24;;;;;;;11.05;5.13;;;;;;;;;;4979355;28;20060;-69
2022/06/02 01:30:16;;;;;;;10.00;5.03;;;;;;;;;;4931949;29;20819;-69
2022/06/02 01:33:22;;;;;;;10.32;4.75;;;;;;;;;;4932051;29;20056;-69
2022/06/02 01:36:07;;;;;;;11.57;5.82;;;;;;;;;;4859197;29;20045;-70
2022/06/02 01:38:56;;;;;;;17.67;7.03;;;;;;;;;;4875792;29;20080;-70
2022/06/02 01:42:04;;;;;;;11.63;5.45;;;;;;;;;;4875709;29;20049;-70
2022/06/02 01:44:58;;;;;;;9.93;4.85;;;;;;;;;;4838378;29;20062;-70
2022/06/02 01:47:34;;;;;;;11.45;4.75;;;;;;;;;;4808202;29;20062;-70
2022/06/02 01:50:20;;;;;;;8.48;4.38;;;;;;;;;;4823474;29;20062;-69
2022/06/02 01:53:02;;;;;;;9.15;4.38;;;;;;;;;;4823265;29;20058;-70
2022/06/02 01:55:53;;;;;;;9.35;4.80;;;;;;;;;;4838483;29;20062;-70
2022/06/02 01:58:43;;;;;;;15.38;6.53;;;;;;;;;;4823037;29;20550;-70
2022/06/02 02:01:44;;;;;;;25.02;9.25;;;;;;;;;;4838237;29;20174;-69
2022/06/02 02:04:44;;;;;;;20.85;8.82;;;;;;;;;;4884639;29;20472;-69
2022/06/02 02:07:48;;;;;;;23.00;8.93;;;;;;;;;;4931743;29;20193;-70
2022/06/02 02:10:36;;;;;;;;;;;;;;;;;;4968337;28;20058;-70
2022/06/02 02:13:42;;;;;;;19.77;7.93;;;;;;;;;;4989334;28;19921;-70
2022/06/02 02:16:42;;;;;;;20.73;7.95;;;;;;;;;;4991651;28;20050;-69
2022/06/02 02:19:42;;;;;;;16.92;7.10;;;;;;;;;;4993583;28;20042;-69
2022/06/02 02:22:15;;;;;;;20.27;8.07;;;;;;;;;;5058732;28;20055;-70
2022/06/02 02:25:07;;;;;;;21.27;8.23;;;;;;;;;;5035379;28;20049;-69
2022/06/02 02:28:02;;;;;;;22.88;8.90;;;;;;;;;;5020027;28;20045;-70
2022/06/02 02:30:45;;;;;;;20.40;7.82;;;;;;;;;;5052452;28;20062;-70
2022/06/02 02:33:36;;;;;;;19.65;8.10;;;;;;;;;;5052352;28;20057;-69
2022/06/02 02:36:27;;;;;;;21.30;8.52;;;;;;;;;;5052298;28;20501;-71
2022/06/02 02:39:13;;;;;;;24.65;8.68;;;;;;;;;;5052432;28;20037;-70
2022/06/02 02:42:04;;;;;;;19.33;8.02;;;;;;;;;;5052190;28;20060;-70
2022/06/02 02:44:57;;;;;;;21.33;7.82;;;;;;;;;;5019129;28;20509;-70
2022/06/02 02:47:37;;;;;;;20.42;8.25;;;;;;;;;;4922096;29;20500;-70
2022/06/02 02:50:10;;;;;;;22.60;8.40;;;;;;;;;;4953915;29;20059;-70
2022/06/02 02:52:50;;;;;;;19.55;9.60;;;;;;;;;;4953938;29;20393;-70
2022/06/02 02:55:31;;;;;;;21.90;8.27;;;;;;;;;;4938291;29;20055;-70
2022/06/02 02:58:28;;;;;;;21.45;8.32;;;;;;;;;;4953874;29;20058;-70
2022/06/02 03:01:07;;;;;;;19.35;7.70;;;;;;;;;;4914963;29;20052;-70
2022/06/02 03:03:59;;;;;;;21.25;9.10;;;;;;;;;;4900002;29;20420;-70
2022/06/02 03:06:36;;;;;;;23.73;9.63;;;;;;;;;;4915381;29;20070;-70
2022/06/02 03:09:19;;;;;;;17.83;7.95;;;;;;;;;;4900551;29;20068;-70
2022/06/02 03:12:02;;;;;;;14.40;6.40;;;;;;;;;;4915457;29;20052;-70
2022/06/02 03:15:01;;;;;;;16.75;6.97;;;;;;;;;;4915727;29;20068;-70
2022/06/02 03:17:58;;;;;;;13.70;6.32;;;;;;;;;;4900166;29;20060;-70
2022/06/02 03:20:35;;;;;;;12.10;5.13;;;;;;;;;;4884311;29;20535;-70
2022/06/02 03:23:14;;;;;;;16.40;6.60;;;;;;;;;;4884122;29;20052;-70
2022/06/02 03:26:08;;;;;;;12.43;5.85;;;;;;;;;;4944410;29;20668;-70
2022/06/02 03:29:02;;;;;;;14.20;7.45;;;;;;;;;;4936665;29;20423;-70
2022/06/02 03:32:14;;;;;;;11.30;4.93;;;;;;;;;;4908948;29;20200;-70
2022/06/02 03:35:09;;;;;;;10.50;5.22;;;;;;;;;;4905975;29;20052;-70
2022/06/02 03:37:49;;;;;;;14.25;6.10;;;;;;;;;;4984271;28;20537;-70
2022/06/02 03:40:38;;;;;;;14.65;5.72;;;;;;;;;;5053699;28;20045;-70
2022/06/02 03:43:28;;;;;;;14.13;6.03;;;;;;;;;;5073525;28;20045;-69
2022/06/02 03:46:18;;;;;;;10.75;5.30;;;;;;;;;;5073626;28;20048;-70
2022/06/02 03:49:17;;;;;;;13.45;6.07;;;;;;;;;;5071366;28;20052;-70
2022/06/02 03:52:15;;;;;;;12.65;5.60;;;;;;;;;;5072322;28;20051;-70
2022/06/02 03:54:54;;;;;;;13.80;5.20;;;;;;;;;;5036337;28;20144;-70
2022/06/02 03:57:42;;;;;;;12.70;6.38;;;;;;;;;;5011107;28;20395;-70
2022/06/02 04:00:26;;;;;;;12.55;5.35;;;;;;;;;;5011213;28;20057;-70
2022/06/02 04:03:13;;;;;;;11.45;5.10;;;;;;;;;;4980334;28;20050;-70
2022/06/02 04:06:08;;;;;;;13.65;5.45;;;;;;;;;;4991325;28;20061;-70
2022/06/02 04:09:07;;;;;;;12.40;5.80;;;;;;;;;;4959074;28;20502;-70
2022/06/02 04:15:05;;;;;;;13.40;5.68;;;;;;;;;;4991533;28;20526;-70
2022/06/02 04:17:38;;;;;;;13.20;5.53;;;;;;;;;;4991286;28;20058;-70
2022/06/02 04:23:58;;;;;;;11.85;5.30;;;;;;;;;;4991292;28;20066;-70
2022/06/02 04:26:28;;;;;;;11.63;5.00;;;;;;;;;;4917839;29;20056;-71
2022/06/02 04:29:48;;;;;;;12.63;6.13;;;;;;;;;;4932828;29;20509;-69
2022/06/02 04:32:24;;;;;;;12.32;5.70;;;;;;;;;;4950479;28;20058;-70
2022/06/02 04:35:18;;;;;;;12.07;5.65;;;;;;;;;;4971420;28;20443;-69
2022/06/02 04:38:10;;;;;;;14.88;5.57;;;;;;;;;;4932631;29;20079;-70
2022/06/02 04:40:50;;;;;;;11.27;5.25;;;;;;;;;;4901233;29;20064;-70
2022/06/02 04:43:26;;;;;;;14.25;6.75;;;;;;;;;;4951870;28;20466;-70
2022/06/02 04:46:27;;;;;;;12.05;5.60;;;;;;;;;;4971366;28;20062;-70
2022/06/02 04:49:18;;;;;;;13.57;5.85;;;;;;;;;;4971143;28;20047;-70
2022/06/02 04:51:59;;;;;;;13.68;5.68;;;;;;;;;;4971509;28;20505;-70
2022/06/02 04:54:53;;;;;;;14.95;6.30;;;;;;;;;;4955176;28;20059;-71
2022/06/02 04:57:44;;;;;;;11.75;5.50;;;;;;;;;;4954959;28;20577;-70
2022/06/02 05:00:40;;;;;;;13.57;5.15;;;;;;;;;;4999758;28;20072;-70
2022/06/02 05:03:45;;;;;;;13.60;5.75;;;;;;;;;;5033176;28;20049;-70
2022/06/02 05:06:40;;;;;;;14.20;6.35;;;;;;;;;;5049720;28;20520;-70
2022/06/02 05:09:27;;;;;;;12.95;5.63;;;;;;;;;;5049554;28;20049;-70
2022/06/02 05:12:22;;;;;;;11.95;5.30;;;;;;;;;;5000372;28;20060;-70
2022/06/02 05:15:04;;;;;;;15.20;6.00;;;;;;;;;;5038341;28;20049;-69
2022/06/02 05:18:06;;;;;;;20.08;6.70;;;;;;;;;;5071575;28;20047;-70
2022/06/02 05:20:57;;;;;;;19.33;6.75;;;;;;;;;;5036533;28;20048;-70
2022/06/02 05:23:40;;;;;;;25.48;7.65;;;;;;;;;;5036294;28;20052;-70
2022/06/02 05:26:46;;;;;;;30.10;9.07;;;;;;;;;;5069415;28;20059;-70
2022/06/02 05:29:59;;;;;;;32.13;9.50;;;;;;;;;;5071538;28;20392;-69
2022/06/02 05:33:16;;;;;;;33.13;9.27;;;;;;;;;;5068788;28;20048;-70
2022/06/02 05:36:08;;;;;;;31.52;9.10;;;;;;;;;;4989433;28;20046;-70
2022/06/02 05:38:57;;;;;;;25.50;8.50;;;;;;;;;;4957544;28;20054;-70
2022/06/02 05:41:46;;;;;;;22.85;7.75;;;;;;;;;;4989739;28;20069;-70
2022/06/02 05:44:34;;;;;;;20.35;7.40;;;;;;;;;;4989781;28;20046;-70
2022/06/02 05:47:07;;;;;;;20.08;7.65;;;;;;;;;;4989676;28;20063;-70
2022/06/02 05:50:06;;;;;;;16.73;6.47;;;;;;;;;;4973480;28;20430;-70
2022/06/02 05:52:43;;;;;;;21.20;6.70;;;;;;;;;;4970421;28;20054;-71
2022/06/02 05:55:43;;;;;;;16.95;7.00;;;;;;;;;;4938529;28;20840;-71
2022/06/02 05:58:29;;;;;;;16.83;6.15;;;;;;;;;;4956852;28;20055;-70
2022/06/02 06:01:28;;;;;;;15.32;5.97;;;;;;;;;;4938307;28;20073;-70
2022/06/02 06:04:05;;;;;;;16.20;6.18;;;;;;;;;;4982439;28;20070;-70
2022/06/02 06:06:53;;;;;;;13.45;5.75;;;;;;;;;;4989522;28;20126;-70
2022/06/02 06:09:41;;;;;;;16.95;5.78;;;;;;;;;;4989649;28;20097;-70
2022/06/02 06:12:31;;;;;;;15.00;6.28;;;;;;;;;;4989614;28;20046;-70
2022/06/02 06:15:18;;;;;;;16.42;6.25;;;;;;;;;;5012372;28;20522;-70
2022/06/02 06:17:57;;;;;;;13.82;5.63;;;;;;;;;;5028791;28;20069;-70
2022/06/02 06:20:50;;;;;;;17.77;6.38;;;;;;;;;;5028539;28;20049;-70
2022/06/02 06:23:21;;;;;;;16.13;6.13;;;;;;;;;;5028738;28;20061;-69
2022/06/02 06:26:01;;;;;;;16.48;7.05;;;;;;;;;;4973368;28;20053;-70
2022/06/02 06:28:42;;;;;;;14.48;6.07;;;;;;;;;;4989013;28;20156;-69
2022/06/02 06:31:43;;;;;;;16.75;6.00;;;;;;;;;;5028662;28;20049;-69
2022/06/02 06:34:23;;;;;;;15.85;6.05;;;;;;;;;;4970067;28;20059;-70
2022/06/02 06:37:27;;;;;;;13.88;6.10;;;;;;;;;;4969915;28;20087;-69
2022/06/02 06:40:18;;;;;;;15.18;5.38;;;;;;;;;;4953999;28;20495;-70
2022/06/02 06:42:57;;;;;;;16.77;6.68;;;;;;;;;;4918635;29;20524;-69
2022/06/02 06:45:35;;;;;;;17.60;6.22;;;;;;;;;;4950325;29;20071;-70
2022/06/02 06:48:23;;;;;;;15.63;6.32;;;;;;;;;;4950684;29;20059;-70
2022/06/02 06:51:03;;;;;;;17.15;7.32;;;;;;;;;;4950284;29;20463;-70
2022/06/02 06:53:40;;;;;;;17.17;6.28;;;;;;;;;;4950487;29;20055;-70
2022/06/02 06:56:17;;;;;;;14.40;5.60;;;;;;;;;;4918717;29;20056;-70
2022/06/02 06:59:15;;;;;;;15.20;6.30;;;;;;;;;;4950492;29;20416;-69
2022/06/02 07:02:04;;;;;;;15.68;5.60;;;;;;;;;;4951393;28;20549;-70
2022/06/02 07:05:06;;;;;;;14.05;5.97;;;;;;;;;;5009356;28;20194;-70
2022/06/02 07:08:05;;;;;;;12.82;5.35;;;;;;;;;;5031596;28;20057;-69
2022/06/02 07:10:42;;;;;;;13.65;5.47;;;;;;;;;;5017839;28;20076;-69
2022/06/02 07:13:15;;;;;;;12.30;5.78;;;;;;;;;;5031759;28;20201;-69
2022/06/02 07:16:21;;;;;;;16.83;5.57;;;;;;;;;;4999065;28;20052;-70
2022/06/02 07:19:33;;;;;;;13.52;5.95;;;;;;;;;;5031762;28;20049;-69
2022/06/02 07:22:34;;;;;;;13.75;5.65;;;;;;;;;;5051583;28;20048;-70
2022/06/02 07:25:14;;;;;;;13.75;5.57;;;;;;;;;;5051498;28;20061;-70
2022/06/02 07:28:07;;;;;;;13.10;5.57;;;;;;;;;;5011250;28;20038;-70
2022/06/02 07:31:24;;;;;;;11.25;4.20;;;;;;;;;;5011748;28;20041;-70
2022/06/02 07:34:30;;;;;;;10.10;4.65;;;;;;;;;;4953553;29;20062;-70
2022/06/02 07:37:11;;;;;;;12.02;4.80;;;;;;;;;;4953422;29;20055;-70
2022/06/02 07:40:06;;;;;;;13.13;5.60;;;;;;;;;;4953253;29;20060;-70
2022/06/02 07:42:47;;;;;;;14.57;4.80;;;;;;;;;;4933823;29;20056;-70
2022/06/02 07:45:51;;;;;;;10.20;4.53;;;;;;;;;;4949227;28;20048;-70
2022/06/02 07:48:50;;;;;;;10.75;4.65;;;;;;;;;;4934201;29;20060;-69
2022/06/02 07:51:31;;;;;;;;;;;;;;;;;;4899749;28;20047;-70
2022/06/02 07:54:19;;;;;;;10.10;4.40;;;;;;;;;;4952985;28;19922;-70
2022/06/02 07:57:32;;;;;;;11.40;4.20;;;;;;;;;;4921010;28;20090;-70
2022/06/02 08:00:23;;;;;;;10.18;4.75;;;;;;;;;;4952503;29;20066;-70
2022/06/02 08:03:08;;;;;;;9.80;4.35;;;;;;;;;;4952591;29;20062;-70
2022/06/02 08:06:22;;;;;;;11.65;4.38;;;;;;;;;;4933397;29;20054;-70
2022/06/02 08:09:34;;;;;;;15.40;5.40;;;;;;;;;;4858443;29;20057;-70
2022/06/02 08:12:29;;;;;;;10.85;5.03;;;;;;;;;;4770573;29;20127;-70
2022/06/02 08:15:14;;;;;;;10.23;4.53;;;;;;;;;;4784986;29;20505;-70
2022/06/02 08:17:50;;;;;;;13.05;4.47;;;;;;;;;;4785756;29;20067;-71
2022/06/02 08:20:33;;;;;;;10.63;4.35;;;;;;;;;;4795518;29;20066;-71
2022/06/02 08:23:15;;;;;;;10.98;4.20;;;;;;;;;;4803349;29;20063;-70
2022/06/02 08:25:58;;;;;;;10.93;4.03;;;;;;;;;;4803392;29;20059;-72
2022/06/02 08:28:44;;;;;;;10.63;4.60;;;;;;;;;;4803442;29;20394;-70
2022/06/02 08:31:41;;;;;;;10.13;4.38;;;;;;;;;;4788161;29;20058;-71
2022/06/02 08:34:25;;;;;;;8.82;4.13;;;;;;;;;;4803418;29;20055;-71
2022/06/02 08:36:59;;;;;;;11.43;3.95;;;;;;;;;;4848799;29;20053;-71
2022/06/02 08:39:44;;;;;;;12.00;4.45;;;;;;;;;;4895345;29;20064;-71
2022/06/02 08:42:48;;;;;;;11.88;5.18;;;;;;;;;;4895222;29;20430;-71
2022/06/02 08:45:52;;;;;;;9.90;4.32;;;;;;;;;;4948132;28;20061;-71
2022/06/02 08:48:56;;;;;;;9.05;4.03;;;;;;;;;;4984328;28;20069;-69
2022/06/02 08:51:53;;;;;;;12.90;4.88;;;;;;;;;;5072265;28;20044;-70
2022/06/02 08:54:50;;;;;;;10.65;4.35;;;;;;;;;;5072224;28;20052;-70
2022/06/02 08:57:41;;;;;;;10.25;4.75;;;;;;;;;;5070140;28;20159;-69
2022/06/02 09:00:42;;;;;;;10.07;4.10;;;;;;;;;;5036850;28;20060;-70
2022/06/02 09:03:53;;;;;;;7.97;3.72;;;;;;;;;;5009910;28;20065;-70
2022/06/02 09:07:11;;;;;;;11.82;4.22;;;;;;;;;;4955163;28;20055;-70
2022/06/02 09:10:32;;;;;;;10.93;3.85;;;;;;;;;;4932505;29;20055;-69
2022/06/02 09:13:16;;;;;;;11.80;4.18;;;;;;;;;;4932553;29;20413;-70
2022/06/02 09:16:00;;;;;;;11.50;4.13;;;;;;;;;;4932510;29;20051;-69
2022/06/02 09:18:54;;;;;;;10.57;3.90;;;;;;;;;;4885305;29;20048;-69
2022/06/02 09:21:52;;;;;;;9.05;3.75;;;;;;;;;;4885352;29;20047;-70
2022/06/02 09:24:44;;;;;;;12.43;4.82;;;;;;;;;;4932228;29;20066;-68
2022/06/02 09:27:38;;;;;;;11.45;4.47;;;;;;;;;;4932073;29;20060;-69
2022/06/02 09:30:15;;;;;;;11.00;4.50;;;;;;;;;;4931869;29;20063;-69
2022/06/02 09:36:28;;;;;;;8.75;3.40;;;;;;;;;;4932397;29;20047;-69
2022/06/02 09:39:20;;;;;;;9.25;4.07;;;;;;;;;;4932087;29;20055;-68
2022/06/02 09:41:50;;;;;;;;;;;;;;;;;;4970906;28;20046;-69
2022/06/02 09:44:27;;;;;;;9.93;3.95;;;;;;;;;;4994785;28;19921;-69
2022/06/02 09:47:14;;;;;;;11.38;4.80;;;;;;;;;;5058175;28;20416;-69
2022/06/02 09:49:51;;;;;;;10.38;4.60;;;;;;;;;;5071314;28;20404;-69
2022/06/02 09:52:43;;;;;;;10.30;4.00;;;;;;;;;;5069329;28;20071;-69
2022/06/02 09:55:16;;;;;;;7.70;3.67;;;;;;;;;;5052306;28;20519;-69
2022/06/02 09:58:00;;;;;;;9.45;3.40;;;;;;;;;;5052606;28;20061;-68
2022/06/02 10:01:03;;;;;;;10.15;4.25;;;;;;;;;;5069281;28;20076;-69
2022/06/02 10:03:58;;;;;;;8.95;3.83;;;;;;;;;;5035401;28;20551;-69
2022/06/02 10:07:02;;;;;;;8.32;4.00;;;;;;;;;;5069108;28;20527;-68
2022/06/02 10:09:41;;;;;;;9.13;3.75;;;;;;;;;;5034884;28;20547;-68
2022/06/02 10:15:49;;;;;;;9.50;5.03;;;;;;;;;;5018965;28;20451;-68
2022/06/02 10:18:26;;;;;;;11.88;4.53;;;;;;;;;;5051706;28;20056;-68
2022/06/02 10:21:06;;;;;;;12.02;5.25;;;;;;;;;;5068505;28;20044;-68
2022/06/02 10:24:00;;;;;;;10.60;4.97;;;;;;;;;;5048358;28;20060;-67
2022/06/02 10:27:15;;;;;;;8.38;3.72;;;;;;;;;;5011891;28;20078;-67
2022/06/02 10:30:21;;;;;;;9.60;4.47;;;;;;;;;;4972155;28;20084;-68
2022/06/02 10:32:58;;;;;;;9.57;4.75;;;;;;;;;;4976816;28;20060;-67
2022/06/02 10:35:47;;;;;;;7.28;3.75;;;;;;;;;;4969259;28;20067;-68
2022/06/02 10:38:45;;;;;;;9.27;4.70;;;;;;;;;;5012166;28;20057;-68
2022/06/02 10:41:31;;;;;;;13.27;4.88;;;;;;;;;;5012274;28;20066;-68
2022/06/02 10:44:07;;;;;;;40.75;15.93;;;;;;;;;;5012638;28;20061;-67
2022/06/02 10:46:58;;;;;;;71.80;25.92;;;;;;;;;;5012523;28;20498;-68
2022/06/02 10:49:39;;;;;;;89.57;34.03;;;;;;;;;;5012379;28;20094;-67
2022/06/02 10:52:21;;;;;;;45.10;16.13;;;;;;;;;;4988886;28;20050;-67
2022/06/02 10:55:24;;;;;;;15.63;7.30;;;;;;;;;;4974074;28;20059;-67
2022/06/02 10:58:11;;;;;;;10.18;5.20;;;;;;;;;;4915700;29;20059;-68
2022/06/02 11:00:54;;;;;;;73.93;25.90;;;;;;;;;;4915927;29;20052;-68
2022/06/02 11:04:01;;;;;;;26.58;14.38;;;;;;;;;;4911948;29;20052;-67
2022/06/02 11:06:37;;;;;;;10.57;5.35;;;;;;;;;;4896885;29;20490;-68
2022/06/02 11:09:31;;;;;;;11.68;5.53;;;;;;;;;;4896918;29;20064;-68
2022/06/02 11:12:32;;;;;;;15.75;7.25;;;;;;;;;;4898998;29;20063;-68
2022/06/02 11:15:32;;;;;;;12.40;5.68;;;;;;;;;;4919192;29;20530;-68
2022/06/02 11:18:11;;;;;;;10.50;4.47;;;;;;;;;;4896587;29;20063;-67
2022/06/02 11:21:03;;;;;;;11.23;5.78;;;;;;;;;;4865554;29;20064;-67
2022/06/02 11:23:37;;;;;;;;;;;;;;;;;;4840930;29;20558;-67
2022/06/02 11:26:25;;;;;;;17.33;7.57;;;;;;;;;;4840700;29;20320;-68
2022/06/02 11:29:14;;;;;;;15.88;6.75;;;;;;;;;;4832589;29;20052;-68
2022/06/02 11:32:11;;;;;;;15.45;6.35;;;;;;;;;;4896652;29;20056;-68
2022/06/02 11:35:15;;;;;;;19.10;7.75;;;;;;;;;;4923110;29;20067;-67
2022/06/02 11:38:19;;;;;;;21.05;9.23;;;;;;;;;;4933884;29;20453;-68
2022/06/02 11:41:03;;;;;;;15.25;7.18;;;;;;;;;;4934166;29;20393;-66
2022/06/02 11:43:57;;;;;;;20.15;7.53;;;;;;;;;;4934204;29;20448;-66
2022/06/02 11:46:58;;;;;;;20.55;7.55;;;;;;;;;;4934205;29;20444;-66
2022/06/02 11:49:44;;;;;;;17.42;6.65;;;;;;;;;;4913812;29;20056;-66
2022/06/02 11:52:40;;;;;;;21.45;7.80;;;;;;;;;;4914957;29;20064;-68
2022/06/02 11:55:29;;;;;;;24.83;8.98;;;;;;;;;;4892405;29;20058;-66
2022/06/02 11:58:30;;;;;;;26.05;10.05;;;;;;;;;;4933774;29;20060;-65
2022/06/02 12:01:35;;;;;;;19.92;6.95;;;;;;;;;;4941457;29;20098;-66
2022/06/02 12:04:31;;;;;;;21.15;8.93;;;;;;;;;;4952582;29;20451;-67
2022/06/02 12:07:32;;;;;;;19.27;7.43;;;;;;;;;;4921628;29;20558;-66
2022/06/02 12:10:27;;;;;;;17.42;6.80;;;;;;;;;;4921026;29;20558;-66
2022/06/02 12:13:44;;;;;;;15.85;5.93;;;;;;;;;;4934905;28;20054;-67
2022/06/02 12:16:27;;;;;;;14.50;4.97;;;;;;;;;;4949496;29;20062;-67
2022/06/02 12:19:03;;;;;;;14.70;5.28;;;;;;;;;;4936277;29;20047;-67
2022/06/02 12:21:59;;;;;;;24.40;9.63;;;;;;;;;;4920620;29;20063;-68
2022/06/02 12:24:50;;;;;;;15.90;6.20;;;;;;;;;;4952732;29;20047;-67
2022/06/02 12:27:30;;;;;;;19.92;6.78;;;;;;;;;;4986590;28;20061;-67
2022/06/02 12:30:23;;;;;;;15.15;6.20;;;;;;;;;;4962008;28;20065;-67
2022/06/02 12:33:21;;;;;;;15.50;7.40;;;;;;;;;;5020831;28;20417;-67
2022/06/02 12:36:07;;;;;;;18.15;6.13;;;;;;;;;;5014226;28;20148;-67
2022/06/02 12:38:43;;;;;;;17.27;7.75;;;;;;;;;;4997580;28;20374;-67
2022/06/02 12:41:50;;;;;;;17.48;7.53;;;;;;;;;;5030307;28;20077;-67
2022/06/02 12:44:58;;;;;;;15.85;6.80;;;;;;;;;;5030128;28;20049;-67
2022/06/02 12:47:57;;;;;;;17.17;7.22;;;;;;;;;;5030372;28;20056;-67
2022/06/02 12:51:02;;;;;;;14.75;7.20;;;;;;;;;;4997452;28;20049;-67
2022/06/02 12:54:16;;;;;;;16.38;7.72;;;;;;;;;;5064042;28;20056;-67
2022/06/02 12:57:08;;;;;;;16.25;7.93;;;;;;;;;;5049731;28;20468;-68
2022/06/02 12:59:50;;;;;;;20.70;9.93;;;;;;;;;;5049642;28;20045;-67
2022/06/02 13:02:56;;;;;;;16.52;7.40;;;;;;;;;;5049692;28;20425;-67
2022/06/02 13:05:45;;;;;;;19.23;10.13;;;;;;;;;;5029580;28;20045;-67
2022/06/02 13:08:47;;;;;;;18.23;8.48;;;;;;;;;;5029985;28;20061;-68
2022/06/02 13:11:54;;;;;;;13.68;6.47;;;;;;;;;;5029803;28;20053;-67
2022/06/02 13:14:43;;;;;;;21.58;10.50;;;;;;;;;;5029441;28;20061;-67
2022/06/02 13:17:43;;;;;;;14.55;6.82;;;;;;;;;;5029511;28;20046;-67
2022/06/02 13:20:29;;;;;;;8.88;4.47;;;;;;;;;;4980808;28;20049;-68
2022/06/02 13:23:24;;;;;;;13.38;5.03;;;;;;;;;;5028930;28;20049;-67
2022/06/02 13:26:21;;;;;;;16.48;7.45;;;;;;;;;;4997187;28;20058;-68
2022/06/02 13:29:12;;;;;;;37.92;15.75;;;;;;;;;;4980150;28;20060;-67
2022/06/02 13:32:01;;;;;;;19.30;8.68;;;;;;;;;;5013240;28;20501;-67
2022/06/02 13:34:46;;;;;;;30.55;11.52;;;;;;;;;;5039795;28;20053;-67
2022/06/02 13:37:53;;;;;;;26.17;11.30;;;;;;;;;;5064418;28;20048;-68
2022/06/02 13:40:26;;;;;;;31.10;12.55;;;;;;;;;;5029004;28;20056;-68
2022/06/02 13:43:40;;;;;;;56.88;27.80;;;;;;;;;;5029168;28;20057;-67
2022/06/02 13:46:44;;;;;;;30.08;12.68;;;;;;;;;;4996143;28;20053;-68
2022/06/02 13:49:26;;;;;;;26.40;11.05;;;;;;;;;;5029255;28;20045;-67
2022/06/02 13:52:21;;;;;;;26.75;11.48;;;;;;;;;;5029090;28;20480;-67
2022/06/02 13:58:51;;;;;;;28.30;9.80;;;;;;;;;;4931751;29;20059;-67
2022/06/02 14:01:34;;;;;;;26.30;9.65;;;;;;;;;;4946742;29;20067;-68
2022/06/02 14:04:50;;;;;;;28.15;9.80;;;;;;;;;;4935487;29;20542;-68
2022/06/02 14:07:52;;;;;;;20.88;8.45;;;;;;;;;;4935423;29;20051;-68
2022/06/02 14:10:32;;;;;;;21.88;8.25;;;;;;;;;;4950746;28;20047;-68
2022/06/02 14:13:15;;;;;;;17.35;6.47;;;;;;;;;;4935216;29;20059;-68
2022/06/02 14:16:02;;;;;;;17.52;7.63;;;;;;;;;;4919866;29;20059;-67
2022/06/02 14:18:54;;;;;;;18.48;7.88;;;;;;;;;;4962971;28;20530;-68
2022/06/02 14:22:01;;;;;;;17.40;7.05;;;;;;;;;;4974303;28;20063;-67
2022/06/02 14:24:46;;;;;;;14.02;5.90;;;;;;;;;;4957973;28;20051;-68
2022/06/02 14:27:53;;;;;;;15.30;5.68;;;;;;;;;;4974120;28;20156;-67
2022/06/02 14:30:37;;;;;;;12.60;5.82;;;;;;;;;;4973793;28;20061;-67
2022/06/02 14:33:35;;;;;;;19.85;7.03;;;;;;;;;;4974089;28;20059;-67
2022/06/02 14:36:24;;;;;;;19.35;7.35;;;;;;;;;;5032642;28;20052;-68
2022/06/02 14:39:05;;;;;;;16.58;7.70;;;;;;;;;;5032513;28;20093;-67
2022/06/02 14:41:54;;;;;;;16.83;7.68;;;;;;;;;;5032800;28;20412;-68
2022/06/02 14:44:36;;;;;;;14.27;6.07;;;;;;;;;;5023940;28;20056;-67
2022/06/02 14:47:17;;;;;;;17.40;7.32;;;;;;;;;;5039298;28;20057;-68
2022/06/02 14:50:14;;;;;;;13.93;6.32;;;;;;;;;;5073503;28;20045;-69
2022/06/02 14:53:15;;;;;;;65.90;22.42;;;;;;;;;;5073477;28;20037;-68
2022/06/02 14:56:17;;;;;;;17.05;7.25;;;;;;;;;;5055851;28;20064;-67
2022/06/02 14:59:15;;;;;;;15.32;7.35;;;;;;;;;;5072897;28;20052;-68
2022/06/02 15:02:14;;;;;;;11.82;5.78;;;;;;;;;;5074375;28;20044;-68
2022/06/02 15:04:50;;;;;;;12.25;6.47;;;;;;;;;;5070133;28;20049;-69
2022/06/02 15:07:45;;;;;;;14.02;5.80;;;;;;;;;;5071979;28;20052;-68
2022/06/02 15:10:50;;;;;;;11.95;5.38;;;;;;;;;;5072153;28;20059;-70
2022/06/02 15:13:56;;;;;;;12.32;5.78;;;;;;;;;;4944236;28;20442;-69
2022/06/02 15:17:03;;;;;;;11.70;4.40;;;;;;;;;;4992744;28;20065;-68
2022/06/02 15:20:09;;;;;;;8.57;4.03;;;;;;;;;;4992758;28;20042;-68
2022/06/02 15:23:05;;;;;;;9.65;4.65;;;;;;;;;;4992482;28;20058;-67
2022/06/02 15:25:56;;;;;;;9.70;4.25;;;;;;;;;;4992202;28;20058;-68
2022/06/02 15:28:45;;;;;;;;;;;;;;;;;;4992623;28;20061;-67
2022/06/02 15:31:17;;;;;;;11.75;4.88;;;;;;;;;;4976137;28;20022;-68
2022/06/02 15:34:24;;;;;;;8.52;3.97;;;;;;;;;;4992311;28;20057;-67
2022/06/02 15:37:36;;;;;;;13.98;7.05;;;;;;;;;;4959371;28;20418;-68
2022/06/02 15:40:41;;;;;;;21.77;12.38;;;;;;;;;;4992084;28;20057;-68
2022/06/02 15:43:17;;;;;;;10.68;4.95;;;;;;;;;;5007812;28;20053;-68
2022/06/02 15:46:16;;;;;;;18.58;8.65;;;;;;;;;;5011404;28;20406;-68
2022/06/02 15:48:52;;;;;;;13.18;5.78;;;;;;;;;;4936489;29;20051;-68
2022/06/02 15:52:01;;;;;;;10.85;5.85;;;;;;;;;;5017189;28;20056;-67
2022/06/02 15:54:31;;;;;;;11.95;5.75;;;;;;;;;;4972110;28;20082;-68
2022/06/02 15:57:23;;;;;;;10.35;5.30;;;;;;;;;;4972275;28;20047;-68
2022/06/02 16:00:00;;;;;;;11.85;4.97;;;;;;;;;;4972300;28;20058;-67
2022/06/02 16:02:56;;;;;;;12.27;5.13;;;;;;;;;;4926959;28;20081;-67
2022/06/02 16:05:45;;;;;;;9.55;4.70;;;;;;;;;;4972174;28;20462;-69
2022/06/02 16:08:36;;;;;;;9.93;4.85;;;;;;;;;;4972119;28;20067;-68
2022/06/02 16:11:50;;;;;;;9.82;4.55;;;;;;;;;;4939837;28;20055;-67
2022/06/02 16:14:38;;;;;;;10.85;4.13;;;;;;;;;;4971993;28;20058;-68
2022/06/02 16:17:35;;;;;;;6.93;3.17;;;;;;;;;;4972100;28;20415;-67
2022/06/02 16:20:18;;;;;;;7.65;3.45;;;;;;;;;;4955616;28;20055;-67
2022/06/02 16:23:03;;;;;;;9.68;4.95;;;;;;;;;;4971743;28;20415;-68
2022/06/02 16:25:55;;;;;;;10.68;4.72;;;;;;;;;;4980766;28;20054;-68
2022/06/02 16:28:41;;;;;;;8.50;4.20;;;;;;;;;;4981618;28;20049;-69
2022/06/02 16:31:29;;;;;;;7.75;3.55;;;;;;;;;;5056436;28;20519;-68
2022/06/02 16:34:34;;;;;;;11.20;4.63;;;;;;;;;;5072073;28;20040;-68
2022/06/02 16:37:04;;;;;;;8.50;3.90;;;;;;;;;;5010177;28;20061;-67
2022/06/02 16:40:21;;;;;;;7.70;3.63;;;;;;;;;;5010542;28;20057;-67
2022/06/02 16:43:00;;;;;;;6.13;3.17;;;;;;;;;;4971342;28;20135;-67
2022/06/02 16:46:22;;;;;;;6.18;3.03;;;;;;;;;;4971356;28;20047;-67
2022/06/02 16:49:09;;;;;;;7.43;3.70;;;;;;;;;;4939350;28;20415;-67
2022/06/02 16:52:23;;;;;;;13.45;5.65;;;;;;;;;;4971192;28;20059;-67
2022/06/02 16:55:29;;;;;;;6.38;3.15;;;;;;;;;;4971330;28;20113;-67
2022/06/02 16:58:18;;;;;;;5.88;2.33;;;;;;;;;;4971058;28;20047;-67
2022/06/02 17:00:56;;;;;;;6.65;3.25;;;;;;;;;;4971271;28;20407;-67
2022/06/02 17:03:34;;;;;;;5.35;2.63;;;;;;;;;;4971216;28;20057;-67
2022/06/02 17:06:37;;;;;;;6.30;2.85;;;;;;;;;;4938894;28;20051;-67
2022/06/02 17:09:45;;;;;;;5.68;3.22;;;;;;;;;;4970906;28;20560;-67
2022/06/02 17:12:38;;;;;;;6.15;2.85;;;;;;;;;;4970920;28;20442;-68
2022/06/02 17:15:17;;;;;;;4.18;2.45;;;;;;;;;;5049588;28;20396;-68